createdAt,value
2023-04-18T00:00:57.638Z,9.20
2023-04-18T00:03:25.356Z,9.50
2023-04-18T00:05:52.957Z,9.20
2023-04-18T00:08:23.526Z,9.50
2023-04-18T00:10:50.582Z,9.50
2023-04-18T00:13:18.571Z,9.50
2023-04-18T00:15:46.595Z,9.20
2023-04-18T00:18:16.159Z,9.60
2023-04-18T00:20:48.066Z,9.50
2023-04-18T00:23:27.931Z,9.40
2023-04-18T00:25:55.355Z,9.30
2023-04-18T00:28:22.841Z,9.70
2023-04-18T00:30:50.195Z,9.30
2023-04-18T00:33:17.954Z,9.40
2023-04-18T00:35:45.731Z,9.60
2023-04-18T00:38:12.910Z,9.30
2023-04-18T00:40:41.261Z,9.20
2023-04-18T00:43:14.541Z,9.40
2023-04-18T00:45:41.966Z,9.60
2023-04-18T00:48:12.011Z,9.50
2023-04-18T00:50:40.786Z,9.40
2023-04-18T00:53:13.154Z,9.50
2023-04-18T00:55:41.271Z,9.60
2023-04-18T00:58:08.766Z,9.80
2023-04-18T01:00:36.298Z,9.70
2023-04-18T01:03:04.059Z,9.50
2023-04-18T01:05:31.498Z,9.50
2023-04-18T01:08:01.443Z,9.50
2023-04-18T01:10:30.771Z,9.30
2023-04-18T01:13:17.690Z,9.60
2023-04-18T01:15:46.997Z,9.40
2023-04-18T01:18:18.337Z,9.60
2023-04-18T01:20:50.371Z,9.50
2023-04-18T01:23:18.479Z,9.20
2023-04-18T01:25:47.128Z,9.60
2023-04-18T01:28:15.502Z,9.20
2023-04-18T01:30:42.832Z,9.30
2023-04-18T01:33:10.131Z,9.40
2023-04-18T01:35:37.764Z,9.40
2023-04-18T01:38:05.100Z,9.50
2023-04-18T01:40:32.490Z,9.50
2023-04-18T01:42:59.980Z,9.20
2023-04-18T01:45:27.435Z,9.30
2023-04-18T01:47:54.690Z,9.20
2023-04-18T01:50:22.527Z,9.60
2023-04-18T01:52:52.673Z,9.50
2023-04-18T01:55:20.841Z,9.60
2023-04-18T01:57:48.416Z,9.30
2023-04-18T02:00:16.404Z,9.40
2023-04-18T02:02:44.125Z,9.10
2023-04-18T02:05:11.878Z,9.20
2023-04-18T02:07:40.170Z,9.10
2023-04-18T02:10:08.018Z,9.30
2023-04-18T02:12:35.071Z,9.40
2023-04-18T02:15:03.133Z,9.30
2023-04-18T02:17:30.667Z,9.30
2023-04-18T02:19:59.193Z,9.00
2023-04-18T02:22:28.728Z,9.20
2023-04-18T02:24:58.818Z,9.20
2023-04-18T02:27:26.185Z,9.30
2023-04-18T02:29:53.500Z,9.10
2023-04-18T02:32:21.550Z,9.30
2023-04-18T02:34:48.933Z,9.10
2023-04-18T02:37:17.814Z,9.10
2023-04-18T02:39:47.353Z,9.30
2023-04-18T02:42:14.605Z,8.90
2023-04-18T02:44:41.720Z,9.40
2023-04-18T02:47:08.979Z,9.20
2023-04-18T02:49:36.537Z,9.10
2023-04-18T02:52:03.881Z,9.10
2023-04-18T02:54:31.180Z,9.30
2023-04-18T02:57:11.954Z,9.20
2023-04-18T02:59:39.451Z,9.20
2023-04-18T03:02:06.750Z,9.40
2023-04-18T03:04:34.464Z,9.30
2023-04-18T03:07:01.954Z,9.20
2023-04-18T03:09:29.410Z,9.60
2023-04-18T03:11:56.855Z,9.40
2023-04-18T03:14:23.996Z,9.20
2023-04-18T03:16:53.812Z,9.30
2023-04-18T03:19:22.488Z,9.20
2023-04-18T03:21:52.324Z,9.20
2023-04-18T03:24:19.885Z,9.20
2023-04-18T03:26:47.464Z,9.40
2023-04-18T03:29:14.514Z,9.10
2023-04-18T03:31:42.621Z,9.40
2023-04-18T03:34:10.212Z,9.20
2023-04-18T03:36:37.597Z,9.10
2023-04-18T03:39:05.344Z,9.20
2023-04-18T03:41:32.993Z,9.20
2023-04-18T03:44:00.961Z,9.00
2023-04-18T03:46:28.436Z,9.40
2023-04-18T03:48:56.292Z,9.30
2023-04-18T03:51:23.487Z,9.20
2023-04-18T03:53:50.576Z,9.20
2023-04-18T03:56:17.734Z,9.40
2023-04-18T03:58:44.916Z,9.10
2023-04-18T04:01:13.154Z,9.20
2023-04-18T04:03:43.878Z,9.10
2023-04-18T04:06:11.355Z,9.20
2023-04-18T04:08:38.452Z,9.30
2023-04-18T04:11:05.648Z,8.90
2023-04-18T04:13:32.999Z,9.10
2023-04-18T04:16:00.314Z,9.00
2023-04-18T04:18:31.455Z,9.10
2023-04-18T04:21:00.149Z,9.00
2023-04-18T04:23:27.669Z,9.10
2023-04-18T04:25:57.076Z,9.10
2023-04-18T04:28:24.317Z,9.10
2023-04-18T04:30:51.953Z,9.10
2023-04-18T04:33:20.415Z,9.00
2023-04-18T04:35:48.022Z,9.00
2023-04-18T04:38:26.147Z,9.00
2023-04-18T04:40:58.793Z,9.10
2023-04-18T04:43:28.866Z,8.80
2023-04-18T04:45:56.358Z,8.80
2023-04-18T04:48:25.050Z,8.90
2023-04-18T04:51:05.528Z,9.10
2023-04-18T04:53:32.768Z,9.00
2023-04-18T04:56:00.351Z,9.10
2023-04-18T04:58:27.581Z,9.00
2023-04-18T05:00:55.095Z,9.00
2023-04-18T05:03:23.292Z,9.10
2023-04-18T05:05:50.954Z,8.90
2023-04-18T05:08:18.063Z,9.10
2023-04-18T05:10:47.610Z,9.00
2023-04-18T05:13:15.199Z,9.00
2023-04-18T05:15:42.585Z,9.10
2023-04-18T05:18:13.182Z,9.00
2023-04-18T05:20:41.044Z,9.10
2023-04-18T05:23:09.866Z,9.10
2023-04-18T05:25:39.973Z,9.20
2023-04-18T05:28:08.761Z,9.30
2023-04-18T05:30:40.306Z,9.30
2023-04-18T05:33:08.030Z,9.40
2023-04-18T05:35:35.394Z,9.50
2023-04-18T05:38:02.707Z,9.40
2023-04-18T05:40:30.424Z,9.50
2023-04-18T05:42:57.678Z,9.40
2023-04-18T05:45:25.489Z,9.60
2023-04-18T05:47:54.169Z,9.40
2023-04-18T05:50:21.922Z,9.60
2023-04-18T05:52:49.680Z,9.70
2023-04-18T05:55:16.936Z,9.70
2023-04-18T05:57:44.266Z,9.50
2023-04-18T06:00:13.172Z,9.60
2023-04-18T06:02:41.151Z,9.70
2023-04-18T06:05:09.789Z,10.00
2023-04-18T06:07:38.115Z,10.10
2023-04-18T06:10:09.432Z,10.10
2023-04-18T06:12:37.204Z,9.90
2023-04-18T06:15:05.978Z,10.00
2023-04-18T06:17:35.156Z,10.10
2023-04-18T06:20:03.553Z,10.30
2023-04-18T06:22:30.851Z,10.10
2023-04-18T06:24:58.051Z,10.30
2023-04-18T06:27:31.504Z,10.10
2023-04-18T06:29:59.713Z,10.40
2023-04-18T06:32:27.267Z,10.50
2023-04-18T06:34:56.984Z,10.30
2023-04-18T06:37:24.983Z,10.30
2023-04-18T06:39:52.525Z,10.50
2023-04-18T06:42:22.769Z,10.60
2023-04-18T06:44:50.664Z,10.60
2023-04-18T06:47:18.102Z,10.40
2023-04-18T06:49:45.767Z,10.40
2023-04-18T06:52:13.370Z,10.50
2023-04-18T06:54:43.752Z,10.70
2023-04-18T06:57:11.127Z,11.10
2023-04-18T06:59:38.844Z,11.00
2023-04-18T07:02:06.409Z,11.10
2023-04-18T07:04:34.159Z,11.20
2023-04-18T07:07:02.358Z,11.30
2023-04-18T07:09:29.973Z,11.40
2023-04-18T07:11:59.382Z,11.20
2023-04-18T07:14:27.558Z,11.40
2023-04-18T07:16:55.329Z,11.70
2023-04-18T07:19:22.592Z,11.50
2023-04-18T07:21:50.052Z,11.80
2023-04-18T07:24:17.580Z,12.00
2023-04-18T07:26:45.030Z,12.10
2023-04-18T07:29:12.340Z,12.30
2023-04-18T07:31:43.227Z,12.20
2023-04-18T07:34:10.293Z,12.20
2023-04-18T07:36:37.875Z,12.40
2023-04-18T07:39:05.210Z,12.60
2023-04-18T07:41:33.421Z,12.90
2023-04-18T07:44:02.566Z,13.10
2023-04-18T07:46:32.570Z,12.70
2023-04-18T07:49:00.178Z,12.90
2023-04-18T07:51:31.745Z,13.00
2023-04-18T07:53:59.778Z,13.20
2023-04-18T07:56:28.232Z,12.90
2023-04-18T07:58:56.007Z,13.20
2023-04-18T08:01:24.959Z,12.90
2023-04-18T08:03:54.325Z,12.70
2023-04-18T08:06:21.926Z,12.90
2023-04-18T08:08:50.128Z,12.90
2023-04-18T08:11:17.947Z,12.90
2023-04-18T08:13:46.915Z,12.70
2023-04-18T08:16:17.075Z,12.70
2023-04-18T08:18:47.630Z,12.70
2023-04-18T08:21:15.453Z,13.20
2023-04-18T08:23:43.270Z,12.90
2023-04-18T08:26:10.821Z,13.00
2023-04-18T08:28:38.009Z,13.00
2023-04-18T08:31:05.983Z,13.20
2023-04-18T08:33:33.511Z,13.30
2023-04-18T08:36:04.234Z,13.30
2023-04-18T08:38:31.711Z,13.20
2023-04-18T08:40:59.470Z,13.30
2023-04-18T08:43:28.562Z,13.50
2023-04-18T08:45:59.669Z,13.60
2023-04-18T08:48:30.114Z,13.70
2023-04-18T08:50:59.175Z,13.60
2023-04-18T08:53:27.352Z,13.50
2023-04-18T08:55:58.226Z,13.80
2023-04-18T08:58:28.008Z,13.60
2023-04-18T09:00:55.578Z,13.90
2023-04-18T09:03:39.402Z,13.90
2023-04-18T09:06:19.530Z,14.00
2023-04-18T09:08:59.632Z,13.90
2023-04-18T09:11:29.533Z,14.00
2023-04-18T09:13:59.251Z,14.10
2023-04-18T09:16:27.970Z,14.70
2023-04-18T09:19:21.576Z,14.70
2023-04-18T09:22:01.326Z,14.90
2023-04-18T09:24:29.541Z,15.00
2023-04-18T09:26:58.939Z,15.20
2023-04-18T09:29:47.457Z,15.30
2023-04-18T09:32:29.442Z,15.00
2023-04-18T09:35:05.692Z,15.40
2023-04-18T09:37:33.307Z,15.20
2023-04-18T09:40:17.554Z,15.30
2023-04-18T09:42:45.634Z,15.20
2023-04-18T09:45:16.436Z,15.70
2023-04-18T09:47:43.702Z,15.40
2023-04-18T09:50:11.670Z,15.40
2023-04-18T09:52:44.596Z,15.70
2023-04-18T09:55:15.674Z,15.50
2023-04-18T09:57:46.866Z,15.80
2023-04-18T10:00:24.881Z,15.80
2023-04-18T10:03:13.780Z,15.60
2023-04-18T10:05:42.032Z,15.80
2023-04-18T10:08:09.701Z,16.10
2023-04-18T10:10:38.814Z,16.30
2023-04-18T10:13:11.913Z,16.70
2023-04-18T10:15:40.338Z,16.50
2023-04-18T10:18:11.474Z,16.80
2023-04-18T10:20:41.607Z,16.70
2023-04-18T10:23:36.520Z,16.70
2023-04-18T10:26:05.722Z,16.90
2023-04-18T10:28:57.184Z,16.70
2023-04-18T10:31:29.203Z,17.20
2023-04-18T10:36:29.080Z,17.00
2023-04-18T10:39:20.295Z,17.20
2023-04-18T10:41:51.919Z,17.50
2023-04-18T10:44:27.383Z,17.80
2023-04-18T10:46:54.972Z,18.00
2023-04-18T10:49:31.066Z,17.80
2023-04-18T10:52:01.548Z,18.00
2023-04-18T10:54:39.225Z,18.00
2023-04-18T10:57:09.070Z,17.80
2023-04-18T10:59:39.997Z,17.80
2023-04-18T11:02:25.782Z,18.00
2023-04-18T11:04:54.141Z,18.00
2023-04-18T11:07:34.245Z,18.20
2023-04-18T11:10:02.453Z,18.30
2023-04-18T11:12:34.862Z,18.00
2023-04-18T11:15:11.156Z,17.90
2023-04-18T11:17:40.415Z,18.20
2023-04-18T11:20:11.304Z,18.40
2023-04-18T11:22:53.694Z,18.60
2023-04-18T11:25:26.225Z,18.90
2023-04-18T11:27:55.855Z,19.10
2023-04-18T11:30:24.996Z,18.90
2023-04-18T11:32:54.435Z,19.00
2023-04-18T11:35:21.686Z,19.00
2023-04-18T11:37:50.507Z,18.80
2023-04-18T11:40:21.338Z,18.50
2023-04-18T11:42:48.620Z,18.50
2023-04-18T11:45:16.407Z,18.40
2023-04-18T11:47:45.099Z,18.80
2023-04-18T11:50:17.664Z,18.90
2023-04-18T11:52:50.558Z,19.30
2023-04-18T11:55:24.752Z,19.60
2023-04-18T11:57:57.281Z,20.00
2023-04-18T12:00:39.647Z,20.20
2023-04-18T12:03:46.297Z,19.70
2023-04-18T12:06:16.659Z,20.10
2023-04-18T12:08:44.486Z,20.00
2023-04-18T12:11:23.255Z,20.10
2023-04-18T12:13:50.561Z,19.90
2023-04-18T12:16:18.528Z,20.70
2023-04-18T12:18:47.448Z,20.50
2023-04-18T12:21:25.523Z,21.10
2023-04-18T12:23:54.969Z,21.20
2023-04-18T12:26:24.076Z,21.20
2023-04-18T12:28:53.037Z,21.00
2023-04-18T12:31:24.105Z,21.30
2023-04-18T12:33:51.684Z,21.40
2023-04-18T12:36:21.077Z,21.50
2023-04-18T12:38:50.160Z,21.50
2023-04-18T12:41:18.010Z,21.50
2023-04-18T12:43:45.638Z,21.70
2023-04-18T12:46:13.617Z,21.90
2023-04-18T12:48:40.837Z,22.00
2023-04-18T12:51:10.992Z,21.90
2023-04-18T12:53:38.544Z,21.90
2023-04-18T12:56:06.504Z,22.00
2023-04-18T12:58:34.023Z,22.00
2023-04-18T13:01:07.811Z,22.10
2023-04-18T13:03:37.230Z,22.20
2023-04-18T13:06:06.272Z,22.40
2023-04-18T13:08:33.966Z,22.70
2023-04-18T13:11:01.555Z,22.90
2023-04-18T13:13:34.453Z,22.80
2023-04-18T13:16:02.923Z,22.80
2023-04-18T13:18:29.996Z,23.00
2023-04-18T13:20:59.928Z,23.20
2023-04-18T13:23:32.118Z,23.40
2023-04-18T13:25:59.736Z,23.50
2023-04-18T13:28:26.988Z,23.60
2023-04-18T13:30:54.421Z,23.70
2023-04-18T13:33:21.810Z,23.90
2023-04-18T13:35:49.285Z,24.20
2023-04-18T13:38:22.643Z,24.50
2023-04-18T13:40:53.765Z,24.60
2023-04-18T13:43:28.262Z,24.50
2023-04-18T13:45:56.241Z,24.40
2023-04-18T13:48:27.884Z,24.30
2023-04-18T13:50:55.591Z,24.40
2023-04-18T13:53:23.153Z,24.50
2023-04-18T13:55:50.607Z,24.60
2023-04-18T13:58:18.532Z,24.40
2023-04-18T14:00:45.932Z,24.20
2023-04-18T14:03:16.315Z,23.80
2023-04-18T14:05:45.918Z,23.60
2023-04-18T14:08:33.836Z,23.80
2023-04-18T14:15:22.702Z,24.40
2023-04-18T14:17:50.201Z,24.50
2023-04-18T14:20:19.583Z,24.50
2023-04-18T14:23:03.268Z,24.10
2023-04-18T14:25:31.347Z,23.80
2023-04-18T14:28:09.961Z,23.50
2023-04-18T14:30:39.495Z,23.80
2023-04-18T14:33:07.589Z,24.20
2023-04-18T14:35:35.230Z,24.80
2023-04-18T14:38:04.943Z,25.10
2023-04-18T14:40:33.057Z,25.00
2023-04-18T14:43:01.777Z,24.80
2023-04-18T14:45:31.279Z,24.40
2023-04-18T14:47:59.564Z,24.00
2023-04-18T14:50:30.224Z,24.10
2023-04-18T14:52:57.580Z,24.50
2023-04-18T14:55:25.045Z,24.90
2023-04-18T14:57:52.348Z,25.10
2023-04-18T15:00:21.883Z,24.80
2023-04-18T15:02:49.434Z,24.20
2023-04-18T15:05:18.247Z,23.60
2023-04-18T15:07:45.376Z,23.30
2023-04-18T15:10:13.230Z,23.20
2023-04-18T15:12:41.930Z,23.50
2023-04-18T15:15:09.658Z,24.00
2023-04-18T15:17:36.835Z,24.20
2023-04-18T15:20:09.066Z,24.50
2023-04-18T15:22:37.071Z,24.80
2023-04-18T15:25:05.803Z,25.20
2023-04-18T15:27:33.687Z,25.70
2023-04-18T15:30:00.942Z,25.80
2023-04-18T15:32:28.535Z,26.00
2023-04-18T15:34:56.458Z,25.90
2023-04-18T15:37:23.924Z,25.60
2023-04-18T15:39:51.436Z,25.50
2023-04-18T15:42:26.837Z,25.70
2023-04-18T15:44:54.346Z,25.90
2023-04-18T15:47:21.950Z,25.70
2023-04-18T15:49:49.470Z,25.60
2023-04-18T15:52:17.181Z,25.30
2023-04-18T15:54:44.802Z,25.40
2023-04-18T15:57:12.319Z,25.80
2023-04-18T15:59:39.745Z,26.20
2023-04-18T16:02:09.353Z,26.30
2023-04-18T16:04:37.480Z,26.60
2023-04-18T16:07:05.180Z,26.20
2023-04-18T16:09:32.917Z,25.60
2023-04-18T16:12:01.714Z,24.80
2023-04-18T16:14:29.177Z,24.10
2023-04-18T16:16:57.642Z,23.40
2023-04-18T16:19:26.684Z,22.80
2023-04-18T16:21:54.377Z,22.50
2023-04-18T16:24:21.879Z,22.10
2023-04-18T16:26:49.659Z,21.70
2023-04-18T16:29:17.511Z,21.20
2023-04-18T16:31:45.114Z,20.90
2023-04-18T16:34:13.030Z,20.90
2023-04-18T16:36:41.235Z,20.30
2023-04-18T16:39:09.036Z,20.40
2023-04-18T16:41:36.567Z,20.30
2023-04-18T16:44:04.209Z,20.30
2023-04-18T16:46:32.478Z,20.50
2023-04-18T16:48:59.893Z,20.90
2023-04-18T16:51:29.062Z,21.30
2023-04-18T16:53:56.318Z,21.40
2023-04-18T16:56:23.906Z,21.30
2023-04-18T16:58:52.375Z,21.10
2023-04-18T17:01:19.684Z,21.10
2023-04-18T17:03:47.052Z,21.40
2023-04-18T17:06:14.588Z,21.20
2023-04-18T17:08:42.206Z,21.30
2023-04-18T17:11:09.444Z,21.30
2023-04-18T17:13:36.748Z,21.10
2023-04-18T17:16:04.482Z,21.00
2023-04-18T17:18:32.684Z,20.90
2023-04-18T17:21:00.060Z,20.60
2023-04-18T17:23:27.980Z,20.10
2023-04-18T17:25:55.510Z,19.80
2023-04-18T17:28:23.986Z,19.30
2023-04-18T17:30:51.775Z,18.90
2023-04-18T17:33:18.869Z,18.60
2023-04-18T17:35:49.245Z,18.60
2023-04-18T17:38:16.291Z,18.30
2023-04-18T17:40:43.961Z,18.40
2023-04-18T17:43:14.840Z,18.30
2023-04-18T17:45:45.309Z,18.00
2023-04-18T17:48:12.836Z,18.30
2023-04-18T17:50:42.620Z,18.00
2023-04-18T17:53:10.505Z,17.90
2023-04-18T17:55:40.218Z,18.00
2023-04-18T17:58:07.417Z,17.70
2023-04-18T18:00:34.716Z,17.80
2023-04-18T18:03:03.048Z,17.90
2023-04-18T18:05:30.713Z,17.70
2023-04-18T18:08:03.467Z,17.80
2023-04-18T18:10:48.846Z,17.20
2023-04-18T18:13:17.010Z,16.90
2023-04-18T18:15:44.735Z,16.50
2023-04-18T18:18:12.014Z,16.20
2023-04-18T18:20:42.816Z,16.20
2023-04-18T18:23:14.818Z,15.90
2023-04-18T18:25:41.976Z,15.50
2023-04-18T18:28:09.106Z,15.50
2023-04-18T18:30:38.260Z,15.30
2023-04-18T18:33:11.810Z,15.00
2023-04-18T18:35:39.556Z,15.10
2023-04-18T18:38:07.636Z,14.90
2023-04-18T18:40:34.978Z,14.80
2023-04-18T18:43:02.277Z,15.10
2023-04-18T18:45:30.077Z,14.90
2023-04-18T18:47:57.824Z,14.70
2023-04-18T18:50:25.116Z,14.40
2023-04-18T18:52:52.979Z,14.50
2023-04-18T18:55:20.499Z,14.50
2023-04-18T18:57:47.677Z,14.30
2023-04-18T19:00:15.031Z,14.20
2023-04-18T19:02:42.709Z,14.20
2023-04-18T19:05:12.931Z,14.10
2023-04-18T19:07:43.353Z,14.10
2023-04-18T19:10:13.292Z,14.20
2023-04-18T19:12:40.741Z,13.90
2023-04-18T19:15:09.110Z,14.10
2023-04-18T19:17:36.947Z,13.60
2023-04-18T19:20:05.088Z,13.70
2023-04-18T19:22:32.795Z,13.70
2023-04-18T19:25:01.206Z,13.80
2023-04-18T19:27:30.804Z,14.00
2023-04-18T19:29:58.668Z,13.60
2023-04-18T19:32:34.052Z,13.70
2023-04-18T19:35:01.707Z,13.50
2023-04-18T19:37:29.854Z,13.30
2023-04-18T19:39:57.201Z,13.70
2023-04-18T19:42:24.744Z,13.40
2023-04-18T19:44:52.441Z,13.50
2023-04-18T19:47:20.410Z,13.40
2023-04-18T19:49:48.059Z,13.20
2023-04-18T19:52:16.730Z,13.40
2023-04-18T19:54:44.270Z,13.10
2023-04-18T19:57:13.278Z,13.00
2023-04-18T19:59:41.197Z,12.90
2023-04-18T20:02:09.249Z,12.80
2023-04-18T20:04:37.056Z,12.80
2023-04-18T20:07:04.761Z,12.80
2023-04-18T20:09:31.814Z,12.90
2023-04-18T20:12:03.245Z,12.60
2023-04-18T20:14:30.981Z,12.80
2023-04-18T20:17:01.007Z,12.60
2023-04-18T20:19:30.037Z,12.50
2023-04-18T20:21:57.495Z,12.40
2023-04-18T20:24:28.305Z,12.50
2023-04-18T20:26:55.660Z,12.40
2023-04-18T20:29:22.990Z,12.40
2023-04-18T20:31:50.657Z,12.20
2023-04-18T20:34:18.227Z,12.20
2023-04-18T20:36:46.750Z,12.30
2023-04-18T20:39:14.513Z,12.50
2023-04-18T20:41:48.706Z,12.10
2023-04-18T20:44:22.340Z,12.20
2023-04-18T20:46:50.003Z,12.20
2023-04-18T20:49:17.832Z,12.20
2023-04-18T20:51:45.325Z,11.90
2023-04-18T20:54:12.988Z,12.10
2023-04-18T20:56:40.816Z,11.50
2023-04-18T20:59:17.680Z,11.70
2023-04-18T21:01:45.220Z,11.40
2023-04-18T21:04:12.780Z,11.60
2023-04-18T21:06:40.584Z,11.50
2023-04-18T21:09:18.481Z,11.60
2023-04-18T21:11:46.108Z,11.50
2023-04-18T21:14:14.233Z,11.40
2023-04-18T21:16:41.687Z,11.50
2023-04-18T21:19:10.979Z,11.40
2023-04-18T21:21:38.473Z,11.30
2023-04-18T21:24:05.949Z,11.20
2023-04-18T21:26:33.359Z,11.20
2023-04-18T21:29:07.458Z,11.20
2023-04-18T21:31:35.739Z,11.20
2023-04-18T21:34:06.382Z,11.10
2023-04-18T21:36:33.837Z,11.10
2023-04-18T21:39:04.490Z,11.10
2023-04-18T21:41:32.088Z,11.10
2023-04-18T21:43:59.827Z,10.90
2023-04-18T21:46:30.062Z,11.00
2023-04-18T21:48:57.689Z,11.20
2023-04-18T21:51:25.883Z,11.00
2023-04-18T21:53:53.378Z,11.00
2023-04-18T21:56:20.934Z,10.80
2023-04-18T21:58:59.135Z,11.10
2023-04-18T22:01:26.832Z,11.00
2023-04-18T22:03:54.329Z,10.80
2023-04-18T22:06:23.470Z,10.90
2023-04-18T22:08:51.834Z,10.90
2023-04-18T22:11:19.193Z,10.80
2023-04-18T22:13:47.549Z,10.60
2023-04-18T22:16:18.775Z,10.50
2023-04-18T22:18:46.217Z,10.60
2023-04-18T22:21:22.759Z,10.50
2023-04-18T22:23:50.505Z,10.60
2023-04-18T22:26:17.799Z,10.20
2023-04-18T22:28:47.920Z,10.40
2023-04-18T22:31:15.723Z,10.30
2023-04-18T22:33:43.120Z,10.10
2023-04-18T22:36:10.323Z,10.00
2023-04-18T22:38:40.199Z,10.10
2023-04-18T22:41:08.347Z,10.10
2023-04-18T22:43:35.590Z,10.00
2023-04-18T22:46:03.323Z,10.20
2023-04-18T22:48:31.358Z,10.00
2023-04-18T22:51:02.125Z,10.10
2023-04-18T22:53:30.099Z,10.00
2023-04-18T22:55:57.758Z,10.10
2023-04-18T22:58:25.737Z,10.00
2023-04-18T23:00:53.519Z,9.80
2023-04-18T23:03:24.201Z,9.90
2023-04-18T23:05:51.368Z,9.80
2023-04-18T23:08:24.054Z,9.80
2023-04-18T23:10:51.300Z,9.90
2023-04-18T23:13:18.766Z,9.70
2023-04-18T23:15:46.007Z,9.90
2023-04-18T23:18:13.182Z,9.80
2023-04-18T23:20:40.592Z,9.90
2023-04-18T23:23:08.823Z,9.90
2023-04-18T23:25:36.863Z,9.80
2023-04-18T23:28:04.791Z,9.80
2023-04-18T23:30:32.285Z,9.90
2023-04-18T23:32:59.938Z,9.90
2023-04-18T23:35:30.311Z,9.90
2023-04-18T23:37:58.771Z,9.80
2023-04-18T23:40:26.525Z,9.90
2023-04-18T23:42:56.483Z,9.90
2023-04-18T23:45:24.722Z,10.10
2023-04-18T23:47:52.457Z,10.00
2023-04-18T23:50:20.079Z,9.80
2023-04-18T23:52:49.907Z,9.70
2023-04-18T23:55:17.449Z,9.80
2023-04-18T23:57:45.298Z,9.80
